createdAt,value
2022-11-24T00:00:13.690Z,7.44
2022-11-24T00:01:13.662Z,7.44
2022-11-24T00:02:13.735Z,7.44
2022-11-24T00:03:13.730Z,7.43
2022-11-24T00:04:13.634Z,7.42
2022-11-24T00:05:13.598Z,7.39
2022-11-24T00:06:13.648Z,7.36
2022-11-24T00:07:13.664Z,7.33
2022-11-24T00:08:13.584Z,7.29
2022-11-24T00:09:13.581Z,7.28
2022-11-24T00:10:13.596Z,7.24
2022-11-24T00:11:13.606Z,7.24
2022-11-24T00:12:13.537Z,7.24
2022-11-24T00:13:13.532Z,7.19
2022-11-24T00:14:13.520Z,7.22
2022-11-24T00:15:13.503Z,7.26
2022-11-24T00:16:13.719Z,7.28
2022-11-24T00:17:13.475Z,7.28
2022-11-24T00:18:13.523Z,7.31
2022-11-24T00:19:18.365Z,7.25
2022-11-24T00:20:13.458Z,7.22
2022-11-24T00:21:13.458Z,7.16
2022-11-24T00:22:13.420Z,7.15
2022-11-24T00:23:13.440Z,7.13
2022-11-24T00:24:13.406Z,7.10
2022-11-24T00:25:13.395Z,7.07
2022-11-24T00:26:13.391Z,7.11
2022-11-24T00:27:13.384Z,7.15
2022-11-24T00:28:13.394Z,7.15
2022-11-24T00:29:13.355Z,7.15
2022-11-24T00:30:13.345Z,7.13
2022-11-24T00:31:16.974Z,7.11
2022-11-24T00:32:13.364Z,7.15
2022-11-24T00:33:13.320Z,7.15
2022-11-24T00:34:13.342Z,7.13
2022-11-24T00:35:13.304Z,7.11
2022-11-24T00:36:13.293Z,7.11
2022-11-24T00:37:13.270Z,7.10
2022-11-24T00:38:13.264Z,7.07
2022-11-24T00:39:13.312Z,7.10
2022-11-24T00:40:13.253Z,7.08
2022-11-24T00:41:13.243Z,7.15
2022-11-24T00:42:13.222Z,7.13
2022-11-24T00:43:13.234Z,7.19
2022-11-24T00:44:13.251Z,7.21
2022-11-24T00:45:14.197Z,7.22
2022-11-24T00:46:13.267Z,7.24
2022-11-24T00:47:13.305Z,7.25
2022-11-24T00:48:13.164Z,7.24
2022-11-24T00:49:13.187Z,7.19
2022-11-24T00:50:13.181Z,7.13
2022-11-24T00:51:13.141Z,7.11
2022-11-24T00:52:13.156Z,7.07
2022-11-24T00:53:13.107Z,7.01
2022-11-24T00:54:13.113Z,6.96
2022-11-24T00:55:13.096Z,6.89
2022-11-24T00:56:13.098Z,6.82
2022-11-24T00:57:13.085Z,6.74
2022-11-24T00:58:13.087Z,6.79
2022-11-24T00:59:13.061Z,6.78
2022-11-24T01:00:13.035Z,6.74
2022-11-24T01:01:13.163Z,6.75
2022-11-24T01:02:13.042Z,6.73
2022-11-24T01:03:13.045Z,6.70
2022-11-24T01:04:13.001Z,6.64
2022-11-24T01:05:13.012Z,6.67
2022-11-24T01:06:13.035Z,6.65
2022-11-24T01:07:13.018Z,6.67
2022-11-24T01:08:12.963Z,6.73
2022-11-24T01:09:12.985Z,6.75
2022-11-24T01:10:12.970Z,6.74
2022-11-24T01:11:12.962Z,6.73
2022-11-24T01:12:12.921Z,6.74
2022-11-24T01:13:12.904Z,6.73
2022-11-24T01:14:12.896Z,6.71
2022-11-24T01:15:12.887Z,6.75
2022-11-24T01:16:13.055Z,6.74
2022-11-24T01:17:12.867Z,6.71
2022-11-24T01:18:12.864Z,6.74
2022-11-24T01:19:12.858Z,6.75
2022-11-24T01:20:12.836Z,6.85
2022-11-24T01:21:12.842Z,6.99
2022-11-24T01:22:12.842Z,7.08
2022-11-24T01:23:12.824Z,7.18
2022-11-24T01:24:12.807Z,7.19
2022-11-24T01:25:12.773Z,7.19
2022-11-24T01:26:12.787Z,7.19
2022-11-24T01:27:12.786Z,7.15
2022-11-24T01:28:12.789Z,7.13
2022-11-24T01:29:12.771Z,7.10
2022-11-24T01:30:12.757Z,7.04
2022-11-24T01:31:12.820Z,7.03
2022-11-24T01:32:12.719Z,7.01
2022-11-24T01:33:12.727Z,6.96
2022-11-24T01:34:12.703Z,6.92
2022-11-24T01:35:12.704Z,6.96
2022-11-24T01:36:12.670Z,7.00
2022-11-24T01:37:12.655Z,7.01
2022-11-24T01:38:12.671Z,7.07
2022-11-24T01:39:12.735Z,7.16
2022-11-24T01:40:12.653Z,7.19
2022-11-24T01:41:12.630Z,7.15
2022-11-24T01:42:12.634Z,7.13
2022-11-24T01:43:12.605Z,7.10
2022-11-24T01:44:12.617Z,7.01
2022-11-24T01:45:12.599Z,6.99
2022-11-24T01:46:12.669Z,6.89
2022-11-24T01:47:12.569Z,6.88
2022-11-24T01:48:12.579Z,6.85
2022-11-24T01:49:12.564Z,6.83
2022-11-24T01:50:12.536Z,6.82
2022-11-24T01:51:12.518Z,6.78
2022-11-24T01:52:12.517Z,6.71
2022-11-24T01:53:12.507Z,6.71
2022-11-24T01:54:12.524Z,6.65
2022-11-24T01:55:12.472Z,6.67
2022-11-24T01:56:12.473Z,6.65
2022-11-24T01:57:12.456Z,6.64
2022-11-24T01:58:12.465Z,6.64
2022-11-24T01:59:12.484Z,6.67
2022-11-24T02:00:12.458Z,6.65
2022-11-24T02:01:12.458Z,6.65
2022-11-24T02:02:12.434Z,6.65
2022-11-24T02:03:12.417Z,6.64
2022-11-24T02:04:12.443Z,6.67
2022-11-24T02:05:12.377Z,6.79
2022-11-24T02:06:12.384Z,6.97
2022-11-24T02:07:12.426Z,7.07
2022-11-24T02:08:12.364Z,7.19
2022-11-24T02:09:12.360Z,7.25
2022-11-24T02:10:12.335Z,7.24
2022-11-24T02:11:12.316Z,7.24
2022-11-24T02:12:12.340Z,7.18
2022-11-24T02:13:12.294Z,7.16
2022-11-24T02:14:12.295Z,7.08
2022-11-24T02:15:12.278Z,7.11
2022-11-24T02:16:12.464Z,7.16
2022-11-24T02:17:12.279Z,7.18
2022-11-24T02:18:12.251Z,7.19
2022-11-24T02:19:12.246Z,7.19
2022-11-24T02:20:12.252Z,7.13
2022-11-24T02:21:12.219Z,7.13
2022-11-24T02:22:12.244Z,7.11
2022-11-24T02:23:12.194Z,7.08
2022-11-24T02:24:12.228Z,7.08
2022-11-24T02:25:12.203Z,7.04
2022-11-24T02:26:12.165Z,7.03
2022-11-24T02:27:12.163Z,7.06
2022-11-24T02:28:12.164Z,7.08
2022-11-24T02:29:12.132Z,7.08
2022-11-24T02:30:12.168Z,7.08
2022-11-24T02:31:12.146Z,7.11
2022-11-24T02:32:12.154Z,7.03
2022-11-24T02:33:12.088Z,7.01
2022-11-24T02:34:12.074Z,7.00
2022-11-24T02:35:12.082Z,6.96
2022-11-24T02:36:12.064Z,6.96
2022-11-24T02:37:12.092Z,6.89
2022-11-24T02:38:12.045Z,6.88
2022-11-24T02:39:12.031Z,6.83
2022-11-24T02:40:12.055Z,6.74
2022-11-24T02:41:12.001Z,6.70
2022-11-24T02:42:12.016Z,6.64
2022-11-24T02:43:12.030Z,6.60
2022-11-24T02:44:11.984Z,6.60
2022-11-24T02:45:11.976Z,6.57
2022-11-24T02:46:12.049Z,6.56
2022-11-24T02:47:11.950Z,6.56
2022-11-24T02:48:11.937Z,6.61
2022-11-24T02:49:11.945Z,6.61
2022-11-24T02:50:11.913Z,6.68
2022-11-24T02:51:11.928Z,6.74
2022-11-24T02:52:11.892Z,6.71
2022-11-24T02:53:11.876Z,6.71
2022-11-24T02:54:11.896Z,6.71
2022-11-24T02:55:11.896Z,6.68
2022-11-24T02:56:11.851Z,6.71
2022-11-24T02:57:11.847Z,6.79
2022-11-24T02:58:11.831Z,6.83
2022-11-24T02:59:11.852Z,6.86
2022-11-24T03:00:11.816Z,6.89
2022-11-24T03:01:11.841Z,6.91
2022-11-24T03:02:11.827Z,6.88
2022-11-24T03:03:11.835Z,6.86
2022-11-24T03:04:11.781Z,6.82
2022-11-24T03:05:11.759Z,6.83
2022-11-24T03:06:11.761Z,6.79
2022-11-24T03:07:11.800Z,6.74
2022-11-24T03:08:11.753Z,6.71
2022-11-24T03:09:11.735Z,6.63
2022-11-24T03:10:11.710Z,6.56
2022-11-24T03:11:11.691Z,6.52
2022-11-24T03:12:11.717Z,6.52
2022-11-24T03:13:11.673Z,6.50
2022-11-24T03:14:11.673Z,6.52
2022-11-24T03:15:11.647Z,6.52
2022-11-24T03:16:11.751Z,6.47
2022-11-24T03:17:11.630Z,6.52
2022-11-24T03:18:11.647Z,6.49
2022-11-24T03:19:11.632Z,6.45
2022-11-24T03:20:11.610Z,6.42
2022-11-24T03:21:11.611Z,6.43
2022-11-24T03:22:11.586Z,6.45
2022-11-24T03:23:11.605Z,6.46
2022-11-24T03:24:11.581Z,6.47
2022-11-24T03:25:11.550Z,6.50
2022-11-24T03:26:11.548Z,6.49
2022-11-24T03:27:11.592Z,6.53
2022-11-24T03:28:11.575Z,6.57
2022-11-24T03:29:11.516Z,6.60
2022-11-24T03:30:11.505Z,6.64
2022-11-24T03:31:11.571Z,6.63
2022-11-24T03:32:11.485Z,6.63
2022-11-24T03:33:11.489Z,6.61
2022-11-24T03:34:11.459Z,6.63
2022-11-24T03:35:11.480Z,6.64
2022-11-24T03:36:11.444Z,6.68
2022-11-24T03:37:11.437Z,6.68
2022-11-24T03:38:11.437Z,6.74
2022-11-24T03:39:11.416Z,6.79
2022-11-24T03:40:11.421Z,6.86
2022-11-24T03:41:11.420Z,6.92
2022-11-24T03:42:11.378Z,6.99
2022-11-24T03:43:11.373Z,7.01
2022-11-24T03:44:11.371Z,7.06
2022-11-24T03:45:37.847Z,7.04
2022-11-24T03:46:11.397Z,7.06
2022-11-24T03:47:11.355Z,7.06
2022-11-24T03:48:11.332Z,7.16
2022-11-24T03:49:11.311Z,7.19
2022-11-24T03:50:11.330Z,7.24
2022-11-24T03:51:11.301Z,7.21
2022-11-24T03:52:11.317Z,7.22
2022-11-24T03:53:11.287Z,7.21
2022-11-24T03:54:11.262Z,7.16
2022-11-24T03:55:11.280Z,7.16
2022-11-24T03:56:11.268Z,7.21
2022-11-24T03:57:11.237Z,7.16
2022-11-24T03:58:11.241Z,7.22
2022-11-24T03:59:11.206Z,7.28
2022-11-24T04:00:11.196Z,7.34
2022-11-24T04:01:11.197Z,7.37
2022-11-24T04:02:11.290Z,7.40
2022-11-24T04:03:11.317Z,7.40
2022-11-24T04:04:11.157Z,7.39
2022-11-24T04:05:11.145Z,7.39
2022-11-24T04:06:11.143Z,7.40
2022-11-24T04:07:11.166Z,7.43
2022-11-24T04:08:11.138Z,7.43
2022-11-24T04:09:11.160Z,7.52
2022-11-24T04:10:11.103Z,7.55
2022-11-24T04:11:11.092Z,7.61
2022-11-24T04:12:11.086Z,7.61
2022-11-24T04:13:11.109Z,7.66
2022-11-24T04:14:13.747Z,7.69
2022-11-24T04:15:11.055Z,7.76
2022-11-24T04:16:11.091Z,7.74
2022-11-24T04:17:11.025Z,7.76
2022-11-24T04:18:11.011Z,7.80
2022-11-24T04:19:11.021Z,7.83
2022-11-24T04:20:11.023Z,7.83
2022-11-24T04:21:10.983Z,7.86
2022-11-24T04:22:10.962Z,7.86
2022-11-24T04:23:10.958Z,7.95
2022-11-24T04:24:10.983Z,7.98
2022-11-24T04:25:10.963Z,8.09
2022-11-24T04:26:10.947Z,8.19
2022-11-24T04:27:10.946Z,8.20
2022-11-24T04:28:10.927Z,8.24
2022-11-24T04:29:10.896Z,8.28
2022-11-24T04:30:10.946Z,8.29
2022-11-24T04:31:10.957Z,8.35
2022-11-24T04:32:10.886Z,8.34
2022-11-24T04:33:10.911Z,8.34
2022-11-24T04:34:10.867Z,8.39
2022-11-24T04:35:10.862Z,8.37
2022-11-24T04:36:10.833Z,8.39
2022-11-24T04:37:10.846Z,8.42
2022-11-24T04:38:10.841Z,8.49
2022-11-24T04:39:19.565Z,8.55
2022-11-24T04:40:10.828Z,8.57
2022-11-24T04:41:10.780Z,8.59
2022-11-24T04:42:10.770Z,8.65
2022-11-24T04:43:10.815Z,8.67
2022-11-24T04:44:10.784Z,8.70
2022-11-24T04:45:10.738Z,8.71
2022-11-24T04:46:10.791Z,8.71
2022-11-24T04:47:10.727Z,8.72
2022-11-24T04:48:10.695Z,8.78
2022-11-24T04:49:10.741Z,8.80
2022-11-24T04:50:10.699Z,8.83
2022-11-24T04:51:10.695Z,8.86
2022-11-24T04:52:10.674Z,8.92
2022-11-24T04:53:10.659Z,8.90
2022-11-24T04:54:10.652Z,8.92
2022-11-24T04:55:10.647Z,8.92
2022-11-24T04:56:10.689Z,8.95
2022-11-24T04:57:10.637Z,8.92
2022-11-24T04:58:10.606Z,8.89
2022-11-24T04:59:10.607Z,8.93
2022-11-24T05:00:10.600Z,8.95
2022-11-24T05:01:10.603Z,8.95
2022-11-24T05:02:10.604Z,8.92
2022-11-24T05:03:10.575Z,8.95
2022-11-24T05:04:10.587Z,8.96
2022-11-24T05:05:10.599Z,8.96
2022-11-24T05:06:10.528Z,9.01
2022-11-24T05:07:16.473Z,9.06
2022-11-24T05:08:10.520Z,9.08
2022-11-24T05:09:10.509Z,9.08
2022-11-24T05:10:10.555Z,9.09
2022-11-24T05:11:10.526Z,9.08
2022-11-24T05:12:10.487Z,9.08
2022-11-24T05:13:10.458Z,9.08
2022-11-24T05:14:10.459Z,9.09
2022-11-24T05:15:10.444Z,9.09
2022-11-24T05:16:10.543Z,9.08
2022-11-24T05:17:10.414Z,9.09
2022-11-24T05:18:10.442Z,9.08
2022-11-24T05:19:10.395Z,9.09
2022-11-24T05:20:10.389Z,9.14
2022-11-24T05:21:10.382Z,9.14
2022-11-24T05:22:10.363Z,9.15
2022-11-24T05:23:10.393Z,9.12
2022-11-24T05:24:10.372Z,9.16
2022-11-24T05:25:10.433Z,9.15
2022-11-24T05:26:10.322Z,9.16
2022-11-24T05:27:10.322Z,9.18
2022-11-24T05:28:10.351Z,9.18
2022-11-24T05:29:10.311Z,9.18
2022-11-24T05:30:10.319Z,9.18
2022-11-24T05:31:10.316Z,9.23
2022-11-24T05:32:10.260Z,9.24
2022-11-24T05:33:10.270Z,9.26
2022-11-24T05:34:10.287Z,9.30
2022-11-24T05:35:10.276Z,9.27
2022-11-24T05:36:10.235Z,9.30
2022-11-24T05:37:10.215Z,9.30
2022-11-24T05:38:10.236Z,9.30
2022-11-24T05:39:10.198Z,9.27
2022-11-24T05:40:10.177Z,9.27
2022-11-24T05:41:10.184Z,9.30
2022-11-24T05:42:10.171Z,9.27
2022-11-24T05:43:10.186Z,9.32
2022-11-24T05:44:10.190Z,9.33
2022-11-24T05:45:10.128Z,9.37
2022-11-24T05:46:10.136Z,9.37
2022-11-24T05:47:10.126Z,9.34
2022-11-24T05:48:10.123Z,9.40
2022-11-24T05:49:10.107Z,9.37
2022-11-24T05:50:10.150Z,9.37
2022-11-24T05:51:10.023Z,9.40
2022-11-24T05:52:10.083Z,9.41
2022-11-24T05:53:10.110Z,9.40
2022-11-24T05:54:10.077Z,9.42
2022-11-24T05:55:10.056Z,9.41
2022-11-24T05:56:09.982Z,9.41
2022-11-24T05:57:10.022Z,9.47
2022-11-24T05:58:10.036Z,9.41
2022-11-24T05:59:10.318Z,9.37
2022-11-24T06:00:09.981Z,9.44
2022-11-24T06:01:10.042Z,9.42
2022-11-24T06:02:10.142Z,9.47
2022-11-24T06:03:10.109Z,9.44
2022-11-24T06:04:09.968Z,9.45
2022-11-24T06:05:09.904Z,9.45
2022-11-24T06:06:09.922Z,9.48
2022-11-24T06:07:09.984Z,9.47
2022-11-24T06:08:09.850Z,9.42
2022-11-24T06:09:09.921Z,9.41
2022-11-24T06:10:09.911Z,9.42
2022-11-24T06:11:09.882Z,9.44
2022-11-24T06:12:09.873Z,9.41
2022-11-24T06:13:09.940Z,9.48
2022-11-24T06:14:11.439Z,9.50
2022-11-24T06:15:09.858Z,9.52
2022-11-24T06:16:09.867Z,9.51
2022-11-24T06:17:09.807Z,9.50
2022-11-24T06:18:09.808Z,9.52
2022-11-24T06:19:09.750Z,9.51
2022-11-24T06:20:09.813Z,9.51
2022-11-24T06:21:11.502Z,9.57
2022-11-24T06:22:09.756Z,9.57
2022-11-24T06:23:09.754Z,9.57
2022-11-24T06:24:09.783Z,9.57
2022-11-24T06:25:09.727Z,9.57
2022-11-24T06:26:09.743Z,9.59
2022-11-24T06:27:09.707Z,9.59
2022-11-24T06:28:09.679Z,9.57
2022-11-24T06:29:09.629Z,9.55
2022-11-24T06:30:09.634Z,9.57
2022-11-24T06:31:09.614Z,9.57
2022-11-24T06:32:09.727Z,9.59
2022-11-24T06:33:09.676Z,9.57
2022-11-24T06:34:09.658Z,9.57
2022-11-24T06:35:09.642Z,9.63
2022-11-24T06:36:09.646Z,9.62
2022-11-24T06:37:09.605Z,9.60
2022-11-24T06:38:09.606Z,9.63
2022-11-24T06:39:09.577Z,9.62
2022-11-24T06:40:09.573Z,9.57
2022-11-24T06:41:09.844Z,9.51
2022-11-24T06:42:09.487Z,9.52
2022-11-24T06:43:09.503Z,9.51
2022-11-24T06:44:09.480Z,9.51
2022-11-24T06:45:09.856Z,9.50
2022-11-24T06:46:09.501Z,9.50
2022-11-24T06:47:09.499Z,9.50
2022-11-24T06:48:09.479Z,9.51
2022-11-24T06:49:09.457Z,9.51
2022-11-24T06:50:09.420Z,9.52
2022-11-24T06:51:09.418Z,9.50
2022-11-24T06:52:09.431Z,9.52
2022-11-24T06:53:09.437Z,9.52
2022-11-24T06:54:09.386Z,9.52
2022-11-24T06:55:09.386Z,9.52
2022-11-24T06:56:15.280Z,9.50
2022-11-24T06:57:09.364Z,9.54
2022-11-24T06:58:09.329Z,9.52
2022-11-24T06:59:09.346Z,9.54
2022-11-24T07:00:09.402Z,9.51
2022-11-24T07:01:09.403Z,9.48
2022-11-24T07:02:09.323Z,9.50
2022-11-24T07:03:09.319Z,9.44
2022-11-24T07:04:09.273Z,9.36
2022-11-24T07:05:09.298Z,9.34
2022-11-24T07:06:09.295Z,9.34
2022-11-24T07:07:09.346Z,9.32
2022-11-24T07:08:12.021Z,9.36
2022-11-24T07:09:09.257Z,9.36
2022-11-24T07:10:09.232Z,9.37
2022-11-24T07:11:09.287Z,9.40
2022-11-24T07:12:09.217Z,9.37
2022-11-24T07:13:09.238Z,9.36
2022-11-24T07:14:09.255Z,9.42
2022-11-24T07:15:09.221Z,9.41
2022-11-24T07:16:09.216Z,9.45
2022-11-24T07:17:09.210Z,9.42
2022-11-24T07:18:09.239Z,9.45
2022-11-24T07:19:09.176Z,9.48
2022-11-24T07:20:09.603Z,9.51
2022-11-24T07:21:09.184Z,9.50
2022-11-24T07:22:09.099Z,9.52
2022-11-24T07:23:09.130Z,9.55
2022-11-24T07:24:09.171Z,9.60
2022-11-24T07:25:09.189Z,9.59
2022-11-24T07:26:09.082Z,9.55
2022-11-24T07:27:09.089Z,9.50
2022-11-24T07:28:09.045Z,9.54
2022-11-24T07:29:13.531Z,9.50
2022-11-24T07:30:09.056Z,9.54
2022-11-24T07:31:09.031Z,9.52
2022-11-24T07:32:09.115Z,9.55
2022-11-24T07:33:09.922Z,9.62
2022-11-24T07:34:08.986Z,9.62
2022-11-24T07:35:09.014Z,9.63
2022-11-24T07:36:09.006Z,9.65
2022-11-24T07:37:09.063Z,9.62
2022-11-24T07:38:09.111Z,9.60
2022-11-24T07:39:10.862Z,9.60
2022-11-24T07:40:08.925Z,9.60
2022-11-24T07:41:09.185Z,9.63
2022-11-24T07:42:08.979Z,9.63
2022-11-24T07:43:08.947Z,9.67
2022-11-24T07:44:08.933Z,9.67
2022-11-24T07:45:08.870Z,9.67
2022-11-24T07:46:08.958Z,9.70
2022-11-24T07:47:08.886Z,9.70
2022-11-24T07:48:08.873Z,9.72
2022-11-24T07:49:08.871Z,9.69
2022-11-24T07:50:08.821Z,9.72
2022-11-24T07:51:08.843Z,9.72
2022-11-24T07:52:09.671Z,9.75
2022-11-24T07:53:08.912Z,9.77
2022-11-24T07:54:08.792Z,9.78
2022-11-24T07:55:08.819Z,9.77
2022-11-24T07:56:08.755Z,9.75
2022-11-24T07:57:08.762Z,9.72
2022-11-24T07:58:08.724Z,9.75
2022-11-24T07:59:09.004Z,9.77
2022-11-24T08:00:10.392Z,9.77
2022-11-24T08:01:08.798Z,9.75
2022-11-24T08:02:08.745Z,9.77
2022-11-24T08:03:08.793Z,9.77
2022-11-24T08:04:08.807Z,9.75
2022-11-24T08:05:08.996Z,9.75
2022-11-24T08:06:28.712Z,9.77
2022-11-24T08:07:08.795Z,9.75
2022-11-24T08:08:08.723Z,9.75
2022-11-24T08:09:08.770Z,9.73
2022-11-24T08:10:08.658Z,9.81
2022-11-24T08:11:08.595Z,9.83
2022-11-24T08:12:08.638Z,9.84
2022-11-24T08:13:08.582Z,9.84
2022-11-24T08:14:08.586Z,9.85
2022-11-24T08:15:11.184Z,9.87
2022-11-24T08:16:08.570Z,9.88
2022-11-24T08:17:08.561Z,9.90
2022-11-24T08:18:08.558Z,9.90
2022-11-24T08:19:08.547Z,9.88
2022-11-24T08:20:08.559Z,9.90
2022-11-24T08:21:08.517Z,9.90
2022-11-24T08:22:08.509Z,9.87
2022-11-24T08:23:08.524Z,9.85
2022-11-24T08:24:08.458Z,9.84
2022-11-24T08:25:08.440Z,9.85
2022-11-24T08:26:08.462Z,9.83
2022-11-24T08:27:08.458Z,9.87
2022-11-24T08:28:08.466Z,9.84
2022-11-24T08:29:08.436Z,9.83
2022-11-24T08:30:08.422Z,9.85
2022-11-24T08:31:08.486Z,9.84
2022-11-24T08:32:08.531Z,9.85
2022-11-24T08:33:08.358Z,9.87
2022-11-24T08:34:08.406Z,9.87
2022-11-24T08:35:13.896Z,9.88
2022-11-24T08:36:08.363Z,9.90
2022-11-24T08:37:08.364Z,9.93
2022-11-24T08:38:08.338Z,9.96
2022-11-24T08:39:08.429Z,9.98
2022-11-24T08:40:08.342Z,10.03
2022-11-24T08:41:08.465Z,10.02
2022-11-24T08:42:08.321Z,10.03
2022-11-24T08:43:08.278Z,9.99
2022-11-24T08:44:08.288Z,10.01
2022-11-24T08:45:19.822Z,9.94
2022-11-24T08:46:08.286Z,9.91
2022-11-24T08:47:08.242Z,9.90
2022-11-24T08:48:08.241Z,9.88
2022-11-24T08:49:08.203Z,9.88
2022-11-24T08:50:08.221Z,9.91
2022-11-24T08:51:08.171Z,9.90
2022-11-24T08:52:08.204Z,9.88
2022-11-24T08:53:08.214Z,9.84
2022-11-24T08:54:08.165Z,9.84
2022-11-24T08:55:08.210Z,9.85
2022-11-24T08:56:08.124Z,9.84
2022-11-24T08:57:08.128Z,9.88
2022-11-24T08:58:08.141Z,9.91
2022-11-24T08:59:08.217Z,9.94
2022-11-24T09:00:08.111Z,9.98
2022-11-24T09:01:08.260Z,9.98
2022-11-24T09:02:08.072Z,10.01
2022-11-24T09:03:08.086Z,10.02
2022-11-24T09:04:08.076Z,10.05
2022-11-24T09:05:28.695Z,10.08
2022-11-24T09:06:08.030Z,10.05
2022-11-24T09:07:08.123Z,10.03
2022-11-24T09:08:08.009Z,10.01
2022-11-24T09:09:07.998Z,10.02
2022-11-24T09:10:08.084Z,10.05
2022-11-24T09:11:08.008Z,10.10
2022-11-24T09:12:13.017Z,10.17
2022-11-24T09:13:07.981Z,10.20
2022-11-24T09:14:07.941Z,10.23
2022-11-24T09:15:08.038Z,10.26
2022-11-24T09:16:08.377Z,10.35
2022-11-24T09:17:07.933Z,10.34
2022-11-24T09:18:07.957Z,10.34
2022-11-24T09:19:07.902Z,10.34
2022-11-24T09:20:07.907Z,10.38
2022-11-24T09:21:07.889Z,10.38
2022-11-24T09:22:07.864Z,10.35
2022-11-24T09:23:07.866Z,10.27
2022-11-24T09:24:07.869Z,10.24
2022-11-24T09:25:07.854Z,10.27
2022-11-24T09:26:07.900Z,10.27
2022-11-24T09:27:07.833Z,10.30
2022-11-24T09:28:07.862Z,10.31
2022-11-24T09:29:07.807Z,10.34
2022-11-24T09:30:08.626Z,10.34
2022-11-24T09:31:07.917Z,10.41
2022-11-24T09:32:07.791Z,10.45
2022-11-24T09:33:07.923Z,10.52
2022-11-24T09:34:07.807Z,10.57
2022-11-24T09:35:07.752Z,10.64
2022-11-24T09:36:07.749Z,10.55
2022-11-24T09:37:07.703Z,10.54
2022-11-24T09:38:07.806Z,10.52
2022-11-24T09:39:07.717Z,10.46
2022-11-24T09:40:07.718Z,10.41
2022-11-24T09:41:07.691Z,10.36
2022-11-24T09:42:08.499Z,10.39
2022-11-24T09:43:08.489Z,10.43
2022-11-24T09:44:07.647Z,10.46
2022-11-24T09:45:07.632Z,10.49
2022-11-24T09:46:07.813Z,10.55
2022-11-24T09:47:07.646Z,10.60
2022-11-24T09:48:07.642Z,10.61
2022-11-24T09:49:07.591Z,10.64
2022-11-24T09:50:08.067Z,10.65
2022-11-24T09:51:07.697Z,10.65
2022-11-24T09:52:07.620Z,10.58
2022-11-24T09:53:07.828Z,10.55
2022-11-24T09:54:07.599Z,10.54
2022-11-24T09:55:07.529Z,10.49
2022-11-24T09:56:07.626Z,10.52
2022-11-24T09:57:07.549Z,10.54
2022-11-24T09:58:07.492Z,10.57
2022-11-24T09:59:07.541Z,10.55
2022-11-24T10:00:13.360Z,10.58
2022-11-24T10:01:07.551Z,10.58
2022-11-24T10:02:08.012Z,10.60
2022-11-24T10:03:07.510Z,10.57
2022-11-24T10:04:07.504Z,10.57
2022-11-24T10:05:07.855Z,10.57
2022-11-24T10:06:07.471Z,10.64
2022-11-24T10:07:07.474Z,10.67
2022-11-24T10:08:07.371Z,10.72
2022-11-24T10:09:07.409Z,10.76
2022-11-24T10:10:07.386Z,10.76
2022-11-24T10:11:07.393Z,10.78
2022-11-24T10:12:07.367Z,10.76
2022-11-24T10:13:07.371Z,10.78
2022-11-24T10:14:07.318Z,10.78
2022-11-24T10:15:07.307Z,10.79
2022-11-24T10:16:07.342Z,10.79
2022-11-24T10:17:08.968Z,10.79
2022-11-24T10:18:11.776Z,10.85
2022-11-24T10:19:07.293Z,10.86
2022-11-24T10:20:07.299Z,10.91
2022-11-24T10:21:07.308Z,10.94
2022-11-24T10:22:07.858Z,10.95
2022-11-24T10:23:07.229Z,11.00
2022-11-24T10:24:07.199Z,11.01
2022-11-24T10:25:07.245Z,11.00
2022-11-24T10:26:07.199Z,11.00
2022-11-24T10:27:07.194Z,11.01
2022-11-24T10:28:07.169Z,11.08
2022-11-24T10:29:07.893Z,11.15
2022-11-24T10:30:07.181Z,11.20
2022-11-24T10:31:07.272Z,11.27
2022-11-24T10:32:07.149Z,11.31
2022-11-24T10:33:07.263Z,11.36
2022-11-24T10:34:07.129Z,11.34
2022-11-24T10:35:07.154Z,11.33
2022-11-24T10:36:07.098Z,11.34
2022-11-24T10:37:07.936Z,11.33
2022-11-24T10:38:07.075Z,11.38
2022-11-24T10:39:07.250Z,11.45
2022-11-24T10:40:10.786Z,11.49
2022-11-24T10:41:07.115Z,11.49
2022-11-24T10:42:07.043Z,11.54
2022-11-24T10:43:07.097Z,11.52
2022-11-24T10:44:06.997Z,11.40
2022-11-24T10:45:07.021Z,11.33
2022-11-24T10:46:07.389Z,11.28
2022-11-24T10:47:06.980Z,11.31
2022-11-24T10:48:06.976Z,11.28
2022-11-24T10:49:07.033Z,11.28
2022-11-24T10:50:06.963Z,11.30
2022-11-24T10:51:06.923Z,11.33
2022-11-24T10:52:07.417Z,11.33
2022-11-24T10:53:06.939Z,11.33
2022-11-24T10:54:08.551Z,11.30
2022-11-24T10:55:07.977Z,11.28
2022-11-24T10:56:06.902Z,11.28
2022-11-24T10:57:06.894Z,11.20
2022-11-24T10:58:06.874Z,11.22
2022-11-24T10:59:07.039Z,11.23
2022-11-24T11:00:06.857Z,11.25
2022-11-24T11:01:06.876Z,11.27
2022-11-24T11:02:07.170Z,11.25
2022-11-24T11:03:07.418Z,11.28
2022-11-24T11:04:06.786Z,11.43
2022-11-24T11:05:06.769Z,11.52
2022-11-24T11:06:06.796Z,11.61
2022-11-24T11:07:07.097Z,11.66
2022-11-24T11:08:07.619Z,11.71
2022-11-24T11:09:06.764Z,11.80
2022-11-24T11:10:06.759Z,11.87
2022-11-24T11:11:06.861Z,11.89
2022-11-24T11:12:35.826Z,11.87
2022-11-24T11:13:06.760Z,11.88
2022-11-24T11:14:06.888Z,11.85
2022-11-24T11:15:06.690Z,11.80
2022-11-24T11:16:06.747Z,11.73
2022-11-24T11:17:06.648Z,11.67
2022-11-24T11:18:06.689Z,11.67
2022-11-24T11:19:26.201Z,11.64
2022-11-24T11:20:06.861Z,11.59
2022-11-24T11:21:06.615Z,11.59
2022-11-24T11:22:06.620Z,11.58
2022-11-24T11:23:06.601Z,11.56
2022-11-24T11:24:06.589Z,11.55
2022-11-24T11:25:06.819Z,11.55
2022-11-24T11:26:06.613Z,11.58
2022-11-24T11:27:06.595Z,11.59
2022-11-24T11:28:09.820Z,11.58
2022-11-24T11:31:17.121Z,11.59
2022-11-24T11:34:10.623Z,11.54
2022-11-24T11:35:06.557Z,11.58
2022-11-24T11:36:06.539Z,11.64
2022-11-24T11:37:06.464Z,11.67
2022-11-24T11:38:06.522Z,11.70
2022-11-24T11:39:06.483Z,11.71
2022-11-24T11:40:06.423Z,11.74
2022-11-24T11:41:06.405Z,11.76
2022-11-24T11:42:06.431Z,11.74
2022-11-24T11:43:06.409Z,11.74
2022-11-24T11:44:06.386Z,11.67
2022-11-24T11:45:06.427Z,11.66
2022-11-24T11:46:06.525Z,11.67
2022-11-24T11:47:06.479Z,11.74
2022-11-24T11:48:06.391Z,11.76
2022-11-24T11:49:06.339Z,11.79
2022-11-24T11:50:07.349Z,11.82
2022-11-24T11:51:23.025Z,11.82
2022-11-24T11:52:06.381Z,11.76
2022-11-24T11:53:06.311Z,11.71
2022-11-24T11:54:06.330Z,11.73
2022-11-24T11:55:06.256Z,11.71
2022-11-24T11:56:06.251Z,11.69
2022-11-24T11:57:06.253Z,11.70
2022-11-24T11:58:06.230Z,11.67
2022-11-24T11:59:06.223Z,11.73
2022-11-24T12:00:06.200Z,11.74
2022-11-24T12:01:06.189Z,11.74
2022-11-24T12:02:06.194Z,11.82
2022-11-24T12:03:06.335Z,11.91
2022-11-24T12:04:06.434Z,11.89
2022-11-24T12:05:06.150Z,11.84
2022-11-24T12:06:06.164Z,11.80
2022-11-24T12:07:06.152Z,11.88
2022-11-24T12:08:09.752Z,11.95
2022-11-24T12:09:20.405Z,11.95
2022-11-24T12:10:06.102Z,11.93
2022-11-24T12:11:06.113Z,11.93
2022-11-24T12:12:06.069Z,11.97
2022-11-24T12:13:06.075Z,11.96
2022-11-24T12:14:06.053Z,11.96
2022-11-24T12:15:10.773Z,11.97
2022-11-24T12:16:06.204Z,11.96
2022-11-24T12:17:06.083Z,11.97
2022-11-24T12:18:06.024Z,11.97
2022-11-24T12:19:06.027Z,12.03
2022-11-24T12:20:06.007Z,12.00
2022-11-24T12:21:06.016Z,12.03
2022-11-24T12:22:05.986Z,12.07
2022-11-24T12:23:05.975Z,12.07
2022-11-24T12:24:05.956Z,12.07
2022-11-24T12:25:05.943Z,12.05
2022-11-24T12:26:05.930Z,12.08
2022-11-24T12:27:05.992Z,12.14
2022-11-24T12:28:05.934Z,12.15
2022-11-24T12:29:05.939Z,12.14
2022-11-24T12:30:05.899Z,12.11
2022-11-24T12:31:06.005Z,12.14
2022-11-24T12:32:05.932Z,12.17
2022-11-24T12:33:05.867Z,12.26
2022-11-24T12:34:05.852Z,12.36
2022-11-24T12:35:05.858Z,12.44
2022-11-24T12:36:05.841Z,12.47
2022-11-24T12:37:05.864Z,12.48
2022-11-24T12:38:05.812Z,12.48
2022-11-24T12:39:05.811Z,12.48
2022-11-24T12:40:05.802Z,12.47
2022-11-24T12:41:33.682Z,12.50
2022-11-24T12:42:05.765Z,12.51
2022-11-24T12:43:05.768Z,12.47
2022-11-24T12:44:05.749Z,12.46
2022-11-24T12:45:05.762Z,12.46
2022-11-24T12:46:05.818Z,12.46
2022-11-24T12:47:05.793Z,12.48
2022-11-24T12:48:05.763Z,12.48
2022-11-24T12:49:05.751Z,12.50
2022-11-24T12:50:05.688Z,12.48
2022-11-24T12:51:05.729Z,12.47
2022-11-24T12:52:05.915Z,12.35
2022-11-24T12:53:05.725Z,12.26
2022-11-24T12:54:05.666Z,12.25
2022-11-24T12:55:05.915Z,12.14
2022-11-24T12:56:05.684Z,12.03
2022-11-24T12:57:05.683Z,11.95
2022-11-24T12:58:10.762Z,11.88
2022-11-24T12:59:05.698Z,11.84
2022-11-24T13:00:05.754Z,11.77
2022-11-24T13:01:05.747Z,11.80
2022-11-24T13:02:05.930Z,11.76
2022-11-24T13:03:05.837Z,11.84
2022-11-24T13:04:05.662Z,11.84
2022-11-24T13:05:05.673Z,11.80
2022-11-24T13:06:05.657Z,11.80
2022-11-24T13:07:05.664Z,11.79
2022-11-24T13:08:05.707Z,11.85
2022-11-24T13:09:05.675Z,11.85
2022-11-24T13:10:05.735Z,11.88
2022-11-24T13:11:05.637Z,11.84
2022-11-24T13:12:05.684Z,11.88
2022-11-24T13:13:05.581Z,11.91
2022-11-24T13:14:05.673Z,11.93